DBBB/COO METAR and TAF weather

Enter ICAO airport designator
Station Type Date Time Source
DBBB METAR 2020/11/27 14:00 UTC NOAA

DBBB 271400Z 22011KT 200V260 9999 SCT014 31/25 Q1009 NOSIG


Station Type Date Time Source
DBBB Decoded METAR 2020/11/27 14:00 UTC NOAA

Cotonou, Benin (DBBB) 06-21N 002-23E 9M
Nov 27, 2020 - 09:00 AM EST / 2020.11.27 1400 UTC
Wind: from the SW (220 degrees) at 13 MPH (11 KT) (direction variable):0
Visibility: greater than 7 mile(s):0
Sky conditions: partly cloudy
Temperature: 87 F (31 C)
Heat index: 97.5 F (36.4 C):1
Dew Point: 77 F (25 C)
Relative Humidity: 70%
Pressure (altimeter): 29.80 in. Hg (1009 hPa)
ob: DBBB 271400Z 22011KT 200V260 9999 SCT014 31/25 Q1009 NOSIG
cycle: 14

Station Type Date Time Source
DBBB TAF 2020/11/27 12:18 UTC NOAA

TAF TAF DBBB 271100Z 2712/2818 22010KT 9999 SCT014 PROB30
TEMPO 2721/2803 -TSRA BKN010 FEW023CB

Example: see airport list